Etusivu
METAR-TAF:

METAR-TAF

Lentoasemat :

Kristiansund, Norja

Leveyspiiri: 63-07N, Pituuspiiri: 007-50E, korkeus merenpinnasta: 6 m

Tämänhetkinen sää

Tämä raportti tehtiin 36 minuuttia sitten, kello 00.20 UTC
Tuuli 3 kn lännestä
Lämpötila 13°C
Kosteus 72%
Ilmanpaine 1008 hPa
Näkyvyys 10 km tai enemmän

METAR: ENKB 220020Z AUTO 28003KT 9999 OVC070/// 13/08 Q1008 RMK WIND 745FT 25002KT

Aika: 02:56 (00:56 UTC)

Sääennuste

Tämä raportti tehtiin 10 tuntia ja 56 minuuttia sitten, kello 14.00 UTC
Ennuste voimassa 21. päivästä klo 15 UTC - 21. päivään klo 19 UTC
Tuuli 8 kn lännestä/luoteesta
Näkyvyys 10 km tai enemmän
Muutamia pilviä 1500 ft:n korkeudessa
Hajanaisia pilviä 6000 ft:n korkeudessa

TAF: ENKB 211400Z 2115/2119 30008KT 9999 FEW015 SCT060

Säähavainnot ja -ennusteet yli 4000 lentoasemalta (METAR- ja TAF-raportit).

Käytössä olevat sääasemat on merkitty karttaan keltaisilla ja punaisilla pisteillä.

Aseta hiiri pisteen päälle nähdäksesi sääaseman nimen.

Klikkaa sitten nähdäksesi säähavainnot ja -ennusteet.

Kartan vaihtaminen: klikkaa mustalla rastilla varustettuja vihreitä pisteitä, niin voit zoomata sisään; viivalla varustettua vihreää pistettä, niin voit zoomata ulos tai vihreitä nuolia, niin pääset viereisille kartoille.


METAR-TAF: